Time;durP1;ratioP1;P1;durP2;ratioP2;P2;SDS_P1;SDS_P2;PMS_P1;PMS_P2;Temp;Humidity;BMP_temperature;BMP_pressure;BME280_temperature;BME280_humidity;BME280_pressure;Samples;Min_cycle;Max_cycle;Signal;HPM_P1;HPM_P2
2022/06/25 00:01:48;;;;;;;3.95;1.70;;;;;;;12.76;97.39;92372.09;4826712;29;20072;-77
2022/06/25 00:06:58;;;;;;;5.05;2.28;;;;;;;12.67;98.63;92361.53;4807567;29;20462;-77
2022/06/25 00:09:24;;;;;;;7.90;1.88;;;;;;;12.64;98.73;92367.41;4807648;29;20133;-77
2022/06/25 00:14:35;;;;;;;3.85;1.90;;;;;;;12.54;98.89;92370.31;4823723;29;20402;-78
2022/06/25 00:17:01;;;;;;;5.35;1.83;;;;;;;12.52;99.04;92372.44;4823978;29;20026;-77
2022/06/25 00:19:27;;;;;;;8.10;2.00;;;;;;;12.48;99.08;92374.88;4807190;29;20057;-77
2022/06/25 00:21:52;;;;;;;6.28;2.28;;;;;;;12.47;99.17;92380.44;4807847;29;20387;-77
2022/06/25 00:24:18;;;;;;;4.85;2.08;;;;;;;12.47;99.23;92383.06;4807499;29;20034;-77
2022/06/25 00:26:44;;;;;;;6.53;2.30;;;;;;;12.47;99.76;92377.81;4804251;29;20102;-77
2022/06/25 00:29:10;;;;;;;6.80;2.10;;;;;;;12.49;99.78;92386.16;4805528;29;20081;-77
2022/06/25 00:31:36;;;;;;;7.05;2.53;;;;;;;12.59;100.00;92382.53;4804281;29;20023;-77
2022/06/25 00:34:03;;;;;;;6.88;2.47;;;;;;;12.60;100.00;92379.59;4812344;29;20050;-77
2022/06/25 00:36:28;;;;;;;6.35;2.92;;;;;;;12.60;100.00;92386.69;4823900;29;20045;-77
2022/06/25 00:38:54;;;;;;;8.30;2.92;;;;;;;12.59;100.00;92383.31;4823610;29;20125;-77
2022/06/25 00:41:20;;;;;;;8.73;2.90;;;;;;;12.59;100.00;92382.53;4807336;29;20042;-76
2022/06/25 00:43:46;;;;;;;4.95;2.30;;;;;;;12.57;100.00;92388.06;4822294;29;20046;-77
2022/06/25 00:46:12;;;;;;;8.98;2.90;;;;;;;12.54;100.00;92386.06;4823361;29;20034;-77
2022/06/25 00:48:37;;;;;;;7.47;2.40;;;;;;;12.53;100.00;92388.97;4823082;29;20390;-77
2022/06/25 00:51:11;;;;;;;6.00;2.22;;;;;;;12.50;100.00;92391.13;4822114;29;20130;-77
2022/06/25 00:53:40;;;;;;;7.00;2.80;;;;;;;12.57;100.00;92389.94;4823357;29;20042;-77
2022/06/25 00:56:09;;;;;;;5.85;2.88;;;;;;;12.59;100.00;92390.41;4821997;29;20073;-76
2022/06/25 00:58:41;;;;;;;9.88;2.40;;;;;;;12.68;100.00;92392.00;4807104;29;20564;-77
2022/06/25 01:01:09;;;;;;;;;;;;;;;12.73;100.00;92383.22;4824322;29;20038;-77
2022/06/25 01:03:37;;;;;;;7.13;2.47;;;;;;;12.71;100.00;92396.63;4823589;29;19920;-77
2022/06/25 01:06:04;;;;;;;6.72;2.25;;;;;;;12.64;100.00;92388.41;4822267;29;20051;-76
2022/06/25 01:08:31;;;;;;;4.68;2.45;;;;;;;12.58;100.00;92384.34;4822444;29;20046;-77
2022/06/25 01:10:57;;;;;;;6.05;2.40;;;;;;;12.52;100.00;92390.84;4822423;29;20151;-77
2022/06/25 01:13:23;;;;;;;9.30;2.47;;;;;;;12.45;100.00;92390.44;4807121;29;20038;-77
2022/06/25 01:15:49;;;;;;;6.95;2.67;;;;;;;12.42;100.00;92396.31;4822200;29;20183;-77
2022/06/25 01:18:16;;;;;;;3.70;2.40;;;;;;;12.37;100.00;92388.56;4822377;29;20038;-77
2022/06/25 01:20:45;;;;;;;7.20;2.22;;;;;;;12.36;100.00;92392.25;4808948;29;20066;-77
2022/06/25 01:23:12;;;;;;;7.43;2.10;;;;;;;12.33;100.00;92393.63;4804091;29;20038;-77
2022/06/25 01:25:39;;;;;;;9.07;2.35;;;;;;;12.32;100.00;92393.94;4791904;29;20062;-77
2022/06/25 01:28:06;;;;;;;4.57;1.90;;;;;;;12.31;100.00;92395.00;4791840;29;20450;-77
2022/06/25 01:30:33;;;;;;;3.42;2.03;;;;;;;12.31;100.00;92385.28;4823666;29;20080;-77
2022/06/25 01:32:58;;;;;;;9.25;2.05;;;;;;;12.32;100.00;92386.06;4794231;29;20132;-77
2022/06/25 01:35:24;;;;;;;3.42;1.80;;;;;;;12.28;100.00;92388.50;4824963;29;20244;-77
2022/06/25 01:37:50;;;;;;;3.08;1.60;;;;;;;12.25;100.00;92382.00;4840862;29;20046;-77
2022/06/25 01:40:16;;;;;;;3.40;1.80;;;;;;;12.24;100.00;92395.41;4824910;29;20038;-77
2022/06/25 01:42:59;;;;;;;5.03;1.60;;;;;;;12.28;99.59;92386.66;4841251;29;20045;-77
2022/06/25 01:45:30;;;;;;;4.28;1.70;;;;;;;12.22;99.50;92382.59;4840838;29;20046;-77
2022/06/25 01:47:57;;;;;;;3.42;1.75;;;;;;;12.17;99.70;92384.56;4836071;29;20366;-77
2022/06/25 01:50:22;;;;;;;3.15;1.40;;;;;;;12.15;99.28;92371.72;4806652;29;20026;-77
2022/06/25 01:52:48;;;;;;;11.35;1.85;;;;;;;12.18;99.46;92376.41;4822945;29;20102;-77
2022/06/25 01:55:15;;;;;;;3.72;1.35;;;;;;;12.29;95.54;92376.91;4822941;29;20038;-77
2022/06/25 01:57:42;;;;;;;3.55;1.50;;;;;;;12.36;94.83;92384.38;4791456;29;20060;-77
2022/06/25 02:00:12;;;;;;;8.35;1.60;;;;;;;12.47;94.67;92388.31;4807189;29;20034;-77
2022/06/25 02:02:45;;;;;;;4.93;1.92;;;;;;;12.53;94.67;92387.13;4826114;29;20125;-77
2022/06/25 02:05:13;;;;;;;8.70;1.70;;;;;;;12.53;95.50;92389.75;4818146;29;20333;-77
2022/06/25 02:07:39;;;;;;;3.75;1.80;;;;;;;12.43;96.53;92390.00;4827895;29;20050;-78
2022/06/25 02:10:05;;;;;;;3.60;1.70;;;;;;;12.37;96.44;92393.81;4812806;29;20136;-77
2022/06/25 02:12:32;;;;;;;2.78;1.55;;;;;;;12.31;96.83;92395.78;4828224;29;20042;-77
2022/06/25 02:14:58;;;;;;;3.15;1.63;;;;;;;12.25;96.71;92389.88;4821098;29;20050;-77
2022/06/25 02:17:24;;;;;;;4.28;1.60;;;;;;;12.21;96.57;92396.78;4825756;29;20046;-77
2022/06/25 02:19:49;;;;;;;3.08;1.60;;;;;;;12.19;97.71;92392.91;4809363;29;20042;-77
2022/06/25 02:22:15;;;;;;;4.72;1.73;;;;;;;12.16;99.02;92393.50;4794417;29;20141;-77
2022/06/25 02:24:43;;;;;;;3.03;1.50;;;;;;;12.10;99.21;92390.22;4809433;29;20548;-77
2022/06/25 02:27:10;;;;;;;4.00;1.40;;;;;;;12.06;99.76;92394.50;4809812;29;20055;-77
2022/06/25 02:29:36;;;;;;;8.95;1.80;;;;;;;12.01;99.60;92387.53;4809789;29;20045;-77
2022/06/25 02:32:03;;;;;;;3.50;1.40;;;;;;;11.97;99.40;92391.81;4809225;29;20087;-77
2022/06/25 02:34:28;;;;;;;4.53;1.63;;;;;;;11.95;98.29;92382.69;4815470;29;20125;-77
2022/06/25 02:36:54;;;;;;;3.20;1.50;;;;;;;11.94;98.58;92391.66;4825295;29;20653;-77
2022/06/25 02:39:21;;;;;;;4.88;1.55;;;;;;;11.93;98.19;92385.59;4809373;29;20031;-77
2022/06/25 02:41:47;;;;;;;3.63;1.60;;;;;;;11.97;98.32;92393.66;4808912;29;20050;-77
2022/06/25 02:44:13;;;;;;;2.72;1.55;;;;;;;11.95;99.63;92387.94;4808845;29;20046;-77
2022/06/25 02:46:43;;;;;;;2.90;1.55;;;;;;;11.93;99.33;92382.97;4808715;29;20129;-77
2022/06/25 02:49:09;;;;;;;3.47;1.60;;;;;;;11.92;100.00;92378.03;4799728;29;20137;-77
2022/06/25 02:51:36;;;;;;;4.93;1.70;;;;;;;11.92;100.00;92383.28;4808823;29;20042;-77
2022/06/25 02:54:02;;;;;;;6.50;2.10;;;;;;;11.89;100.00;92384.66;4817176;29;20531;-77
2022/06/25 02:59:12;;;;;;;6.75;1.88;;;;;;;11.81;100.00;92380.84;4826947;29;20532;-77
2022/06/25 03:01:47;;;;;;;5.78;2.15;;;;;;;11.81;100.00;92372.22;4826861;29;20557;-77
2022/06/25 03:04:14;;;;;;;4.78;2.10;;;;;;;11.78;100.00;92373.59;4826808;29;20415;-77
2022/06/25 03:06:40;;;;;;;7.20;2.03;;;;;;;11.79;100.00;92376.97;4826708;29;20045;-77
2022/06/25 03:09:06;;;;;;;3.67;1.80;;;;;;;11.74;100.00;92372.63;4842790;29;20034;-76
2022/06/25 03:11:33;;;;;;;3.20;1.70;;;;;;;11.72;100.00;92380.00;4826415;29;20053;-77
2022/06/25 03:13:59;;;;;;;9.70;2.03;;;;;;;11.70;100.00;92371.66;4826367;29;20052;-77
2022/06/25 03:16:25;;;;;;;5.70;1.73;;;;;;;11.68;100.00;92371.16;4811437;29;20042;-77
2022/06/25 03:18:51;;;;;;;6.70;2.15;;;;;;;11.67;100.00;92372.25;4826611;29;20045;-77
2022/06/25 03:21:36;;;;;;;3.40;1.40;;;;;;;11.66;99.85;92373.31;4843029;29;20489;-77
2022/06/25 03:24:05;;;;;;;3.38;1.67;;;;;;;11.65;99.21;92363.91;4826386;29;20110;-77
2022/06/25 03:26:32;;;;;;;6.13;1.77;;;;;;;11.67;98.98;92369.63;4808455;29;20058;-77
2022/06/25 03:28:59;;;;;;;4.07;1.40;;;;;;;11.69;98.47;92369.34;4808581;29;20046;-77
2022/06/25 03:31:26;;;;;;;2.70;1.42;;;;;;;11.70;98.05;92368.25;4823390;29;20490;-77
2022/06/25 03:33:53;;;;;;;2.63;1.30;;;;;;;11.73;96.45;92371.06;4823300;29;20076;-77
2022/06/25 03:36:47;;;;;;;3.38;1.50;;;;;;;11.76;95.75;92373.09;4813673;29;20057;-77
2022/06/25 03:39:15;;;;;;;3.83;1.20;;;;;;;11.80;94.91;92371.44;4804993;29;20417;-77
2022/06/25 03:41:41;;;;;;;2.35;1.30;;;;;;;11.80;94.58;92362.81;4789974;29;20467;-76
2022/06/25 03:44:33;;;;;;;3.35;1.10;;;;;;;11.82;93.77;92373.75;4798348;29;20072;-77
2022/06/25 03:47:17;;;;;;;2.40;0.80;;;;;;;11.86;91.60;92370.25;4805043;29;20129;-77
2022/06/25 03:49:43;;;;;;;2.83;0.90;;;;;;;11.85;91.81;92378.44;4790078;29;20053;-77
2022/06/25 03:52:12;;;;;;;1.63;1.15;;;;;;;11.83;91.33;92376.09;4804843;29;20065;-77
2022/06/25 03:54:38;;;;;;;1.35;1.00;;;;;;;11.81;91.90;92378.22;4806140;29;20042;-77
2022/06/25 03:57:04;;;;;;;1.88;0.98;;;;;;;11.81;92.67;92378.22;4789896;29;20047;-77
2022/06/25 03:59:51;;;;;;;2.35;1.25;;;;;;;11.83;92.91;92385.81;4804679;29;20498;-77
2022/06/25 04:02:25;;;;;;;2.47;1.13;;;;;;;11.83;92.48;92386.56;4805027;29;20512;-77
2022/06/25 04:05:10;;;;;;;4.55;1.00;;;;;;;11.81;92.07;92374.84;4804794;29;20050;-77
2022/06/25 04:07:36;;;;;;;4.28;1.10;;;;;;;11.83;91.17;92375.31;4805803;29;20586;-77
2022/06/25 04:10:05;;;;;;;2.15;0.70;;;;;;;11.94;85.40;92381.16;4789971;29;20034;-77
2022/06/25 04:12:30;;;;;;;1.95;0.70;;;;;;;12.02;85.34;92383.06;4804725;29;20391;-77
2022/06/25 04:14:56;;;;;;;4.15;0.93;;;;;;;12.08;86.34;92382.63;4815031;29;20049;-77
2022/06/25 04:17:22;;;;;;;1.77;0.90;;;;;;;12.18;85.36;92378.22;4820223;29;20129;-77
2022/06/25 04:19:47;;;;;;;1.67;0.90;;;;;;;12.23;85.27;92378.13;4804490;29;20039;-77
2022/06/25 04:22:15;;;;;;;2.97;0.82;;;;;;;12.34;82.63;92381.28;4803860;29;20039;-77
2022/06/25 04:24:42;;;;;;;1.35;0.88;;;;;;;12.49;80.57;92375.66;4804611;29;20042;-77
2022/06/25 04:29:03;;;;;;;3.38;0.60;;;;;;;12.64;78.85;92382.41;4792660;29;20046;-77
2022/06/25 04:29:54;;;;;;;3.03;0.70;;;;;;;12.81;77.73;92379.88;4807289;29;20046;-76
2022/06/25 04:32:21;;;;;;;0.77;0.73;;;;;;;12.97;76.96;92372.38;4807187;29;20038;-77
2022/06/25 04:35:08;;;;;;;1.77;0.80;;;;;;;13.07;76.49;92366.81;4794837;29;20509;-77
2022/06/25 04:37:36;;;;;;;1.48;0.90;;;;;;;13.18;75.96;92363.94;4807183;29;20042;-77
2022/06/25 04:40:02;;;;;;;1.33;0.88;;;;;;;13.27;75.75;92357.63;4840925;29;20103;-77
2022/06/25 04:42:28;;;;;;;2.08;0.80;;;;;;;13.33;75.76;92360.91;4825178;29;20386;-75
2022/06/25 04:44:54;;;;;;;0.85;0.65;;;;;;;13.45;73.88;92355.84;4808872;29;20056;-75
2022/06/25 04:47:20;;;;;;;1.02;0.80;;;;;;;13.65;72.04;92356.34;4791600;29;20042;-75
2022/06/25 04:49:53;;;;;;;1.80;0.70;;;;;;;13.81;71.29;92352.16;4796070;29;20042;-76
2022/06/25 04:52:18;;;;;;;0.70;0.70;;;;;;;14.09;68.53;92350.00;4806328;29;20050;-75
2022/06/25 04:54:44;;;;;;;0.77;0.70;;;;;;;14.34;67.43;92347.66;4806232;29;20121;-76
2022/06/25 04:57:14;;;;;;;0.60;0.60;;;;;;;14.52;68.22;92346.56;4792994;29;20125;-77
2022/06/25 05:00:06;;;;;;;1.35;0.80;;;;;;;14.51;68.21;92350.25;4822218;29;20061;-75
2022/06/25 05:02:34;;;;;;;1.13;0.68;;;;;;;14.52;70.71;92351.03;4806048;29;20074;-76
2022/06/25 05:05:05;;;;;;;2.22;0.80;;;;;;;14.54;71.62;92356.75;4791793;29;20071;-76
2022/06/25 05:07:30;;;;;;;0.95;0.82;;;;;;;14.59;78.73;92361.91;4806242;29;20095;-76
2022/06/25 05:09:56;;;;;;;6.75;1.00;;;;;;;14.80;77.55;92366.50;4806153;29;20046;-76
2022/06/25 05:15:07;;;;;;;1.40;0.90;;;;;;;14.87;78.00;92372.06;4806444;29;20050;-75
2022/06/25 05:17:34;;;;;;;5.30;0.90;;;;;;;14.92;76.05;92367.38;4805936;29;20034;-76
2022/06/25 05:20:01;;;;;;;6.18;1.20;;;;;;;15.09;75.75;92368.44;4806432;29;20038;-78
2022/06/25 05:22:27;;;;;;;1.27;0.80;;;;;;;15.09;76.55;92374.47;4806022;29;20046;-76
2022/06/25 05:24:53;;;;;;;3.05;0.90;;;;;;;15.10;76.54;92380.50;4788868;29;20409;-76
2022/06/25 05:27:19;;;;;;;1.20;0.90;;;;;;;15.09;75.72;92382.38;4774599;29;20417;-76
2022/06/25 05:29:45;;;;;;;2.47;1.10;;;;;;;15.10;76.56;92381.28;4787957;29;20049;-76
2022/06/25 05:32:11;;;;;;;0.85;0.70;;;;;;;15.12;76.34;92383.59;4787827;29;20051;-76
2022/06/25 05:34:37;;;;;;;2.20;0.93;;;;;;;15.15;76.18;92393.50;4787778;29;20417;-76
2022/06/25 05:37:03;;;;;;;1.20;0.68;;;;;;;15.17;75.85;92396.59;4773162;29;20038;-76
2022/06/25 05:39:28;;;;;;;1.58;1.00;;;;;;;15.17;76.07;92400.00;4787336;29;20134;-76
2022/06/25 05:41:54;;;;;;;1.77;0.88;;;;;;;15.21;75.49;92397.53;4788389;29;20046;-76
2022/06/25 05:44:19;;;;;;;5.05;1.10;;;;;;;15.27;76.14;92400.78;4772754;29;20039;-76
2022/06/25 05:46:45;;;;;;;2.08;1.13;;;;;;;15.66;75.55;92401.50;4788115;29;20083;-76
2022/06/25 05:49:10;;;;;;;1.77;1.15;;;;;;;16.42;73.66;92406.59;4803889;29;20103;-76
2022/06/25 05:51:36;;;;;;;2.53;1.38;;;;;;;17.23;72.34;92407.06;4788025;29;20050;-76
2022/06/25 05:54:02;;;;;;;2.67;0.88;;;;;;;18.01;70.67;92413.28;4774573;29;20050;-76
2022/06/25 05:56:27;;;;;;;3.58;1.40;;;;;;;18.73;66.56;92415.28;4804276;29;20083;-77
2022/06/25 05:58:53;;;;;;;3.78;1.42;;;;;;;19.30;66.39;92414.13;4788245;29;20175;-76
2022/06/25 06:01:18;;;;;;;2.20;1.10;;;;;;;19.82;65.06;92414.22;4817723;29;20049;-77
2022/06/25 06:03:44;;;;;;;4.50;1.42;;;;;;;20.37;63.19;92426.41;4823154;29;20409;-77
2022/06/25 06:06:09;;;;;;;5.28;1.65;;;;;;;20.86;63.89;92422.50;4791687;29;20163;-77
2022/06/25 06:08:35;;;;;;;2.38;1.30;;;;;;;21.02;61.28;92424.28;4806599;29;20054;-76
2022/06/25 06:11:00;;;;;;;3.70;1.40;;;;;;;20.81;61.60;92430.75;4821200;29;20038;-76
2022/06/25 06:13:26;;;;;;;2.92;1.30;;;;;;;20.42;65.06;92433.34;4806330;29;20095;-77
2022/06/25 06:15:51;;;;;;;3.75;1.40;;;;;;;20.26;66.12;92427.31;4806051;29;20165;-76
2022/06/25 06:18:17;;;;;;;2.58;1.40;;;;;;;20.79;66.51;92439.06;4804259;29;20099;-76
2022/06/25 06:20:42;;;;;;;3.25;1.40;;;;;;;21.46;62.50;92439.91;4804700;29;20107;-76
2022/06/25 06:23:08;;;;;;;5.07;1.40;;;;;;;21.07;62.68;92448.72;4804100;29;20043;-77
2022/06/25 06:25:33;;;;;;;4.93;1.50;;;;;;;20.69;62.59;92454.81;4804120;29;20090;-77
2022/06/25 06:27:59;;;;;;;2.95;1.30;;;;;;;20.66;62.54;92463.50;4804332;29;20043;-77
2022/06/25 06:30:25;;;;;;;2.85;1.20;;;;;;;20.37;63.17;92458.31;4804404;29;20494;-76
2022/06/25 06:32:50;;;;;;;4.03;1.30;;;;;;;20.10;64.97;92457.34;4787105;29;20039;-77
2022/06/25 06:35:16;;;;;;;2.40;1.10;;;;;;;19.63;66.15;92460.03;4806469;29;20050;-76
2022/06/25 06:37:41;;;;;;;3.00;1.30;;;;;;;19.27;68.85;92454.63;4806654;29;20053;-76
2022/06/25 06:40:08;;;;;;;3.67;1.13;;;;;;;19.43;67.56;92462.59;4804179;29;20092;-76
2022/06/25 06:42:35;;;;;;;3.67;1.38;;;;;;;19.44;67.81;92461.47;4817008;29;20046;-76
2022/06/25 06:45:01;;;;;;;5.05;1.35;;;;;;;19.19;69.20;92463.50;4790747;29;20153;-76
2022/06/25 06:47:26;;;;;;;5.97;1.48;;;;;;;19.08;68.98;92462.47;4824706;29;20141;-76
2022/06/25 06:49:52;;;;;;;2.97;1.20;;;;;;;18.95;71.51;92463.63;4783524;29;20393;-76
2022/06/25 06:52:17;;;;;;;3.70;1.27;;;;;;;19.04;69.96;92465.00;4812782;29;20043;-76
2022/06/25 06:54:43;;;;;;;4.65;1.42;;;;;;;19.12;68.81;92473.94;4817788;29;20050;-76
2022/06/25 06:57:09;;;;;;;4.50;1.17;;;;;;;18.97;69.61;92472.00;4814773;29;20038;-77
2022/06/25 06:59:36;;;;;;;3.88;1.33;;;;;;;18.90;70.73;92481.31;4802606;29;20034;-78
2022/06/25 07:02:02;;;;;;;3.58;1.27;;;;;;;18.59;73.23;92483.81;4801445;29;20533;-79
2022/06/25 07:04:27;;;;;;;3.03;1.60;;;;;;;18.26;73.19;92484.75;4791044;29;20412;-79
2022/06/25 07:06:53;;;;;;;4.55;1.15;;;;;;;17.89;74.54;92490.06;4814258;29;20033;-80
2022/06/25 07:09:19;;;;;;;2.03;1.23;;;;;;;17.73;75.38;92492.59;4812344;29;20046;-80
2022/06/25 07:11:44;;;;;;;2.90;1.33;;;;;;;17.69;75.14;92492.44;4819137;29;20046;-81
2022/06/25 07:14:11;;;;;;;3.70;1.30;;;;;;;17.95;75.23;92494.06;4796390;29;20121;-80
2022/06/25 07:16:37;;;;;;;2.95;1.27;;;;;;;17.96;76.40;92498.25;4812221;29;20043;-78
2022/06/25 07:19:04;;;;;;;5.15;1.58;;;;;;;18.22;77.32;92497.13;4814949;29;20291;-77
2022/06/25 07:21:30;;;;;;;1.85;1.10;;;;;;;18.47;66.18;92503.94;4794212;29;20104;-77
2022/06/25 07:23:55;;;;;;;1.08;0.95;;;;;;;18.77;64.51;92503.66;4802680;29;20042;-78
2022/06/25 07:26:22;;;;;;;2.25;1.00;;;;;;;19.02;62.72;92514.97;4798764;29;20138;-79
2022/06/25 07:28:48;;;;;;;4.35;1.05;;;;;;;19.23;63.29;92506.81;4806320;29;20041;-80
2022/06/25 07:31:14;;;;;;;7.07;2.28;;;;;;;19.28;60.80;92511.88;4806715;29;20038;-79
2022/06/25 07:33:40;;;;;;;1.45;0.90;;;;;;;19.39;62.51;92506.88;4821433;29;20062;-79
2022/06/25 07:36:07;;;;;;;2.80;1.05;;;;;;;19.69;63.42;92501.94;4799943;29;20053;-80
2022/06/25 07:38:33;;;;;;;3.97;1.30;;;;;;;19.55;59.61;92506.88;4820490;29;20061;-79
2022/06/25 07:41:00;;;;;;;2.45;1.02;;;;;;;19.80;59.38;92504.09;4804822;29;20047;-79
2022/06/25 07:43:27;;;;;;;4.50;1.10;;;;;;;19.89;59.53;92502.03;4793425;29;20106;-79
2022/06/25 07:45:53;;;;;;;5.18;1.10;;;;;;;20.22;58.97;92508.84;4796271;29;20051;-79
2022/06/25 07:48:19;;;;;;;2.42;1.02;;;;;;;20.42;56.38;92502.47;4788959;29;20043;-78
2022/06/25 07:53:30;;;;;;;2.40;1.10;;;;;;;20.13;65.10;92504.50;4817190;29;20070;-78
2022/06/25 07:55:56;;;;;;;3.10;1.30;;;;;;;19.99;65.31;92514.03;4828933;29;20062;-78
2022/06/25 07:58:23;;;;;;;2.33;1.23;;;;;;;19.82;66.13;92509.84;4807211;29;20071;-78
2022/06/25 08:00:50;;;;;;;2.47;1.30;;;;;;;19.75;65.26;92508.56;4829609;29;20545;-77
2022/06/25 08:03:16;;;;;;;2.67;1.38;;;;;;;19.72;65.71;92488.00;4812402;29;20042;-78
2022/06/25 08:05:42;;;;;;;3.97;1.25;;;;;;;19.82;65.09;92492.03;4822237;29;20679;-79
2022/06/25 08:08:09;;;;;;;4.25;1.38;;;;;;;19.98;67.38;92492.00;4817495;29;20124;-79
2022/06/25 08:10:35;;;;;;;2.38;1.15;;;;;;;19.92;67.86;92496.03;4814380;29;20057;-79
2022/06/25 08:13:02;;;;;;;5.65;1.33;;;;;;;19.71;65.57;92497.06;4836476;29;20050;-79
2022/06/25 08:15:27;;;;;;;2.30;1.17;;;;;;;19.58;66.36;92503.53;4820084;29;20042;-79
2022/06/25 08:17:53;;;;;;;3.38;1.30;;;;;;;19.32;65.95;92498.72;4805814;29;20042;-79
2022/06/25 08:20:18;;;;;;;3.50;1.45;;;;;;;19.58;68.01;92492.16;4837707;29;20073;-79
2022/06/25 08:22:45;;;;;;;2.13;1.30;;;;;;;19.75;66.28;92487.31;4836639;29;20030;-79
2022/06/25 08:25:13;;;;;;;1.95;1.23;;;;;;;19.91;64.93;92482.00;4836242;29;20058;-79
2022/06/25 08:27:46;;;;;;;1.85;1.10;;;;;;;19.93;66.73;92492.28;4820758;29;20047;-79
2022/06/25 08:30:11;;;;;;;3.72;1.27;;;;;;;19.90;65.04;92492.94;4837199;29;20058;-79
2022/06/25 08:32:37;;;;;;;3.33;1.40;;;;;;;19.69;65.48;92488.66;4821498;29;20038;-79
2022/06/25 08:35:03;;;;;;;2.00;1.10;;;;;;;19.86;65.72;92497.41;4805677;29;20049;-78
2022/06/25 08:37:29;;;;;;;3.50;1.30;;;;;;;19.86;65.27;92490.22;4820348;29;20041;-78
2022/06/25 08:39:54;;;;;;;5.20;1.20;;;;;;;19.85;67.03;92493.22;4819350;29;20030;-79
2022/06/25 08:42:22;;;;;;;5.28;1.27;;;;;;;19.91;66.31;92492.63;4836372;29;20045;-79
2022/06/25 08:44:47;;;;;;;2.65;1.30;;;;;;;19.96;63.71;92491.59;4821065;29;20105;-78
2022/06/25 08:47:13;;;;;;;5.95;1.30;;;;;;;20.16;64.03;92487.88;4820012;29;20117;-78
2022/06/25 08:49:39;;;;;;;5.32;1.30;;;;;;;20.07;62.97;92484.63;4819311;29;20106;-79
2022/06/25 08:52:07;;;;;;;2.38;1.08;;;;;;;20.20;63.91;92481.84;4836797;29;20051;-79
2022/06/25 08:54:33;;;;;;;6.88;1.23;;;;;;;20.23;62.98;92486.50;4804585;29;20516;-79
2022/06/25 08:56:59;;;;;;;6.65;1.40;;;;;;;20.01;63.95;92480.69;4835970;29;20065;-78
2022/06/25 08:59:26;;;;;;;4.35;1.45;;;;;;;19.99;63.53;92482.91;4835302;29;20046;-79
2022/06/25 09:01:51;;;;;;;5.47;1.40;;;;;;;19.95;65.79;92484.75;4835424;29;20047;-78
2022/06/25 09:04:17;;;;;;;2.65;1.30;;;;;;;20.11;67.48;92479.41;4818540;29;20404;-79
2022/06/25 09:06:43;;;;;;;3.60;1.50;;;;;;;19.93;65.45;92489.63;4836098;29;20082;-79
2022/06/25 09:09:15;;;;;;;2.30;1.42;;;;;;;20.11;64.88;92492.69;4803778;29;20141;-78
2022/06/25 09:11:49;;;;;;;2.97;1.50;;;;;;;20.37;63.38;92489.47;4820085;29;20042;-79
2022/06/25 09:14:23;;;;;;;2.28;1.38;;;;;;;20.39;61.91;92493.31;4819708;29;20129;-79
2022/06/25 09:17:20;;;;;;;3.75;1.38;;;;;;;20.35;61.52;92489.81;4804107;29;20073;-78
2022/06/25 09:19:51;;;;;;;2.67;1.20;;;;;;;20.27;63.93;92501.41;4816397;29;20061;-78
2022/06/25 09:22:19;;;;;;;3.75;1.30;;;;;;;20.23;61.91;92492.56;4817746;29;20050;-78
2022/06/25 09:24:57;;;;;;;2.15;1.25;;;;;;;20.24;63.32;92498.66;4802058;29;20045;-78
2022/06/25 09:27:28;;;;;;;4.95;1.73;;;;;;;20.39;61.64;92490.66;4834215;29;20146;-79
2022/06/25 09:29:54;;;;;;;1.80;1.20;;;;;;;20.53;62.59;92495.50;4833903;29;20072;-78
2022/06/25 09:32:20;;;;;;;3.13;1.20;;;;;;;20.59;62.41;92494.16;4835350;29;20030;-79
2022/06/25 09:34:46;;;;;;;4.03;1.20;;;;;;;20.72;62.27;92502.00;4820188;29;20065;-79
2022/06/25 09:37:27;;;;;;;2.75;1.25;;;;;;;20.95;59.81;92500.19;4836754;29;20049;-78
2022/06/25 09:39:54;;;;;;;2.08;1.00;;;;;;;20.89;58.30;92506.91;4834439;29;20046;-78
2022/06/25 09:42:20;;;;;;;3.22;1.20;;;;;;;20.88;59.15;92500.06;4834203;29;20123;-78
2022/06/25 09:44:46;;;;;;;3.67;1.13;;;;;;;20.87;55.77;92497.75;4833233;29;20038;-79
2022/06/25 09:47:13;;;;;;;2.70;1.20;;;;;;;21.03;54.89;92500.31;4805800;29;20047;-79
2022/06/25 09:49:40;;;;;;;4.85;1.30;;;;;;;21.33;54.65;92503.19;4825119;29;20076;-78
2022/06/25 09:52:06;;;;;;;3.17;1.23;;;;;;;21.23;54.86;92503.75;4821282;29;20030;-78
2022/06/25 09:54:32;;;;;;;6.07;1.35;;;;;;;21.45;56.69;92499.63;4814000;29;20243;-78
2022/06/25 09:56:59;;;;;;;4.05;1.02;;;;;;;21.40;52.62;92508.66;4795543;29;20034;-77
2022/06/25 09:59:30;;;;;;;4.55;1.00;;;;;;;21.47;50.42;92500.06;4808638;29;20035;-76
2022/06/25 10:01:55;;;;;;;3.25;1.10;;;;;;;21.53;51.64;92501.31;4788124;29;20502;-77
2022/06/25 10:04:22;;;;;;;2.00;1.05;;;;;;;21.71;52.98;92491.72;4804833;29;20058;-77
2022/06/25 10:06:49;;;;;;;2.78;1.23;;;;;;;21.54;52.57;92502.84;4789635;29;20046;-77
2022/06/25 10:09:18;;;;;;;1.70;0.93;;;;;;;21.44;52.30;92498.09;4788265;29;20046;-77
2022/06/25 10:11:44;;;;;;;6.10;1.23;;;;;;;21.62;54.08;92491.19;4790127;29;20038;-78
2022/06/25 10:14:11;;;;;;;3.47;1.20;;;;;;;21.85;53.79;92495.75;4804890;29;20516;-77
2022/06/25 10:16:37;;;;;;;2.10;1.20;;;;;;;22.01;54.51;92501.72;4794098;29;20065;-78
2022/06/25 10:19:04;;;;;;;3.03;1.38;;;;;;;22.17;52.72;92501.56;4801572;29;20449;-78
2022/06/25 10:21:30;;;;;;;5.82;1.42;;;;;;;22.18;53.74;92503.91;4800647;29;20175;-77
2022/06/25 10:24:01;;;;;;;5.25;1.20;;;;;;;22.34;55.22;92501.13;4820020;29;20129;-77
2022/06/25 10:26:27;;;;;;;3.13;1.45;;;;;;;22.28;55.25;92501.78;4824363;29;20046;-77
2022/06/25 10:28:53;;;;;;;2.35;1.38;;;;;;;22.15;54.12;92503.81;4812650;29;20050;-78
2022/06/25 10:31:19;;;;;;;3.97;1.33;;;;;;;22.19;55.18;92505.41;4815207;29;20030;-78
2022/06/25 10:34:05;;;;;;;3.47;1.30;;;;;;;22.19;55.61;92505.41;4817980;29;20049;-78
2022/06/25 10:36:39;;;;;;;11.77;3.95;;;;;;;22.32;54.21;92499.94;4794632;29;20034;-77
2022/06/25 10:39:27;;;;;;;6.63;1.30;;;;;;;22.28;54.28;92497.22;4814131;29;20099;-78
2022/06/25 10:45:04;;;;;;;;;;;;;;;22.34;54.00;92497.69;4799471;29;20039;-80
2022/06/25 10:47:47;;;;;;;2.17;1.00;;;;;;;22.38;53.06;92498.47;4812988;29;19981;-81
2022/06/25 10:50:22;;;;;;;3.33;1.30;;;;;;;22.41;51.30;92500.44;4809945;29;20103;-80
2022/06/25 10:53:03;;;;;;;2.60;1.40;;;;;;;22.39;53.36;92495.47;4817177;29;20090;-80
2022/06/25 10:55:30;;;;;;;2.72;1.30;;;;;;;22.62;54.35;92490.06;4796449;29;20054;-80
2022/06/25 10:58:24;;;;;;;2.17;1.15;;;;;;;22.81;54.49;92491.09;4827934;29;20097;-81
2022/06/25 11:00:58;;;;;;;3.22;1.30;;;;;;;22.86;51.01;92491.50;4827681;29;20091;-80
2022/06/25 11:03:27;;;;;;;2.15;1.15;;;;;;;22.68;50.36;92495.09;4797763;29;20043;-80
2022/06/25 11:05:54;;;;;;;6.68;1.35;;;;;;;22.70;47.81;92492.81;4804841;29;20038;-80
2022/06/25 11:08:22;;;;;;;4.93;1.30;;;;;;;22.57;47.58;92495.72;4819357;29;20057;-80
2022/06/25 11:10:49;;;;;;;2.15;1.08;;;;;;;22.73;49.63;92494.78;4795338;29;20034;-81
2022/06/25 11:13:15;;;;;;;2.15;1.00;;;;;;;22.89;44.43;92490.03;4806856;29;20048;-81
2022/06/25 11:15:43;;;;;;;6.05;1.30;;;;;;;22.99;50.63;92486.75;4810979;29;20085;-81
2022/06/25 11:18:13;;;;;;;2.15;1.17;;;;;;;22.77;50.27;92484.94;4811817;29;20034;-81
2022/06/25 11:20:41;;;;;;;4.30;1.55;;;;;;;23.01;50.04;92484.50;4805788;29;20034;-80
2022/06/25 11:23:11;;;;;;;3.65;1.40;;;;;;;23.29;50.21;92485.94;4807063;29;20061;-81
2022/06/25 11:28:52;;;;;;;4.30;1.30;;;;;;;23.18;49.12;92477.81;4793769;29;20066;-81
2022/06/25 11:31:21;;;;;;;3.15;1.10;;;;;;;23.23;51.65;92484.72;4810407;29;20034;-80
2022/06/25 11:33:49;;;;;;;2.03;1.10;;;;;;;23.22;47.81;92488.53;4809341;29;20130;-80
2022/06/25 11:36:15;;;;;;;3.47;1.25;;;;;;;23.26;52.05;92484.78;4812161;29;20033;-80
2022/06/25 11:38:43;;;;;;;2.58;1.10;;;;;;;23.20;47.00;92490.81;4808165;29;20047;-81
2022/06/25 11:41:22;;;;;;;1.83;1.00;;;;;;;22.90;48.72;92488.13;4817382;29;20034;-78
2022/06/25 11:43:47;;;;;;;2.80;1.20;;;;;;;23.06;47.77;92484.16;4817046;29;20145;-78
2022/06/25 11:46:20;;;;;;;2.08;1.10;;;;;;;23.23;47.33;92488.16;4818827;29;20085;-77
2022/06/25 11:48:50;;;;;;;1.85;1.10;;;;;;;23.24;47.31;92486.28;4809469;29;20051;-77
2022/06/25 11:51:25;;;;;;;3.15;1.20;;;;;;;23.23;48.61;92490.06;4811963;29;20043;-78
2022/06/25 11:53:52;;;;;;;2.70;1.15;;;;;;;23.52;47.95;92479.69;4816615;29;20077;-77
2022/06/25 11:56:18;;;;;;;3.15;1.30;;;;;;;23.27;45.19;92491.63;4793812;29;20087;-78